createdAt,value
2023-02-14T00:47:58.782Z,14.17
2023-02-14T00:50:46.443Z,17.33
2023-02-14T00:53:32.363Z,15.45
2023-02-14T00:56:19.345Z,15.32
2023-02-14T00:59:05.346Z,15.02
2023-02-14T01:47:43.308Z,13.23
2023-02-14T01:50:35.645Z,13.53
2023-02-14T01:53:28.394Z,10.30
2023-02-14T01:56:23.698Z,15.88
2023-02-14T01:59:12.807Z,12.95
2023-02-14T02:48:13.624Z,11.43
2023-02-14T02:51:20.020Z,10.45
2023-02-14T02:54:25.271Z,10.13
2023-02-14T02:57:22.035Z,12.20
2023-02-14T03:46:07.086Z,8.48
2023-02-14T03:48:56.589Z,8.27
2023-02-14T03:51:48.010Z,9.32
2023-02-14T03:54:35.127Z,9.95
2023-02-14T03:57:25.926Z,9.03
2023-02-14T04:47:40.916Z,9.10
2023-02-14T04:50:26.495Z,7.78
2023-02-14T04:53:12.056Z,8.30
2023-02-14T04:55:57.508Z,9.52
2023-02-14T04:58:42.825Z,8.07
2023-02-14T05:45:48.861Z,8.77
2023-02-14T05:48:34.543Z,8.02
2023-02-14T05:51:21.562Z,6.97
2023-02-14T05:54:07.103Z,6.85
2023-02-14T05:56:57.453Z,6.78
2023-02-14T05:59:43.253Z,8.47
2023-02-14T06:02:28.905Z,6.97
2023-02-14T06:05:15.240Z,8.65
2023-02-14T06:08:01.496Z,8.68
2023-02-14T06:10:47.121Z,7.68
2023-02-14T06:13:32.540Z,8.33
2023-02-14T06:16:18.094Z,6.90
2023-02-14T06:19:03.485Z,7.63
2023-02-14T06:21:49.268Z,8.65
2023-02-14T06:24:35.223Z,7.88
2023-02-14T06:27:21.833Z,7.03
2023-02-14T06:30:08.475Z,9.13
2023-02-14T06:32:53.846Z,6.80
2023-02-14T06:35:39.220Z,8.10
2023-02-14T06:38:24.558Z,8.68
2023-02-14T06:41:11.191Z,7.40
2023-02-14T06:43:56.470Z,7.55
2023-02-14T06:46:41.975Z,7.78
2023-02-14T06:49:27.313Z,8.20
2023-02-14T06:52:12.694Z,7.60
2023-02-14T06:54:58.243Z,12.07
2023-02-14T06:57:45.730Z,6.80
2023-02-14T07:00:31.506Z,7.15
2023-02-14T07:03:17.165Z,10.40
2023-02-14T07:06:02.787Z,14.82
2023-02-14T07:08:48.391Z,12.93
2023-02-14T07:11:33.843Z,10.38
2023-02-14T07:14:19.320Z,12.05
2023-02-14T07:17:04.683Z,13.20
2023-02-14T07:19:50.588Z,11.65
2023-02-14T07:22:37.276Z,13.43
2023-02-14T07:25:23.012Z,11.00
2023-02-14T07:28:08.347Z,10.55
2023-02-14T07:30:53.857Z,13.35
2023-02-14T07:33:39.134Z,9.63
2023-02-14T07:36:24.586Z,8.93
2023-02-14T07:39:10.287Z,9.98
2023-02-14T07:41:55.778Z,9.65
2023-02-14T07:44:46.254Z,10.48
2023-02-14T07:47:31.456Z,9.98
2023-02-14T07:50:17.086Z,10.17
2023-02-14T07:53:02.592Z,9.00
2023-02-14T07:55:54.432Z,12.38
2023-02-14T07:58:40.224Z,8.98
2023-02-14T08:01:25.497Z,8.10
2023-02-14T08:04:13.813Z,8.47
2023-02-14T08:06:59.084Z,7.45
2023-02-14T08:09:44.493Z,8.88
2023-02-14T08:12:48.528Z,7.80
2023-02-14T08:15:53.659Z,8.77
2023-02-14T08:18:41.841Z,8.37
2023-02-14T08:21:28.015Z,11.07
2023-02-14T08:24:18.160Z,8.35
2023-02-14T08:27:03.970Z,10.07
2023-02-14T08:29:53.106Z,9.38
2023-02-14T08:32:38.456Z,9.60
2023-02-14T08:35:26.320Z,7.82
2023-02-14T08:38:12.126Z,9.07
2023-02-14T08:41:06.832Z,9.73
2023-02-14T08:43:54.171Z,8.70
2023-02-14T08:46:39.701Z,8.17
2023-02-14T08:49:28.323Z,8.35
2023-02-14T08:52:14.053Z,6.93
2023-02-14T08:54:59.369Z,8.52
2023-02-14T08:57:44.931Z,6.88
2023-02-14T09:00:33.967Z,8.87
2023-02-14T09:03:19.632Z,9.75
2023-02-14T09:06:13.631Z,7.32
2023-02-14T09:09:01.504Z,7.97
2023-02-14T09:11:48.108Z,7.97
2023-02-14T09:14:38.485Z,9.43
2023-02-14T09:17:24.007Z,9.50
2023-02-14T09:20:13.622Z,8.65
2023-02-14T09:22:59.748Z,9.52
2023-02-14T09:25:46.229Z,9.35
2023-02-14T09:28:31.845Z,7.97
2023-02-14T09:31:23.647Z,7.57
2023-02-14T09:34:12.700Z,12.73
2023-02-14T09:37:16.912Z,7.07
2023-02-14T09:40:06.168Z,7.13
2023-02-14T09:43:04.667Z,7.17
2023-02-14T09:45:56.772Z,8.50
2023-02-14T09:48:47.130Z,7.72
2023-02-14T09:51:32.830Z,10.00
2023-02-14T09:54:27.895Z,9.75
2023-02-14T09:57:32.199Z,9.57
2023-02-14T10:00:26.053Z,12.73
2023-02-14T10:03:50.767Z,10.85
2023-02-14T10:06:50.763Z,11.23
2023-02-14T10:09:42.422Z,11.38
2023-02-14T10:12:42.891Z,10.97
2023-02-14T10:15:47.755Z,11.95
2023-02-14T10:19:01.422Z,13.10
2023-02-14T10:22:33.311Z,11.77
2023-02-14T10:25:28.002Z,11.63
2023-02-14T10:28:16.830Z,12.20
2023-02-14T10:31:34.713Z,11.52
2023-02-14T10:34:41.955Z,11.63
2023-02-14T10:37:48.344Z,11.80
2023-02-14T10:40:43.741Z,13.85
2023-02-14T10:43:50.901Z,11.27
2023-02-14T10:46:45.713Z,11.80
2023-02-14T10:50:04.571Z,10.30
2023-02-14T10:53:33.626Z,9.77
2023-02-14T10:56:31.551Z,11.95
2023-02-14T10:59:25.591Z,8.90
2023-02-14T11:02:18.415Z,8.93
2023-02-14T11:05:06.242Z,10.10
2023-02-14T11:07:51.911Z,10.63
2023-02-14T11:10:38.719Z,8.50
2023-02-14T11:13:39.101Z,9.77
2023-02-14T11:16:37.887Z,8.15
2023-02-14T11:19:37.114Z,7.82
2023-02-14T11:22:33.250Z,8.48
2023-02-14T11:25:23.044Z,8.25
2023-02-14T11:28:17.015Z,7.57
2023-02-14T11:31:03.310Z,7.47
2023-02-14T11:33:51.722Z,8.70
2023-02-14T11:36:42.338Z,7.20
2023-02-14T11:39:34.989Z,8.88
2023-02-14T11:42:47.755Z,7.60
2023-02-14T11:45:38.270Z,7.07
2023-02-14T11:48:37.756Z,8.00
2023-02-14T11:51:35.054Z,8.30
2023-02-14T11:54:37.148Z,11.00
2023-02-14T11:57:40.044Z,10.20
2023-02-14T12:00:34.292Z,11.98
2023-02-14T12:03:22.480Z,8.80
2023-02-14T12:06:08.179Z,9.70
2023-02-14T12:09:27.918Z,7.55
2023-02-14T12:12:26.720Z,9.40
2023-02-14T12:15:42.486Z,9.82
2023-02-14T12:18:59.450Z,9.15
2023-02-14T12:21:54.532Z,8.93
2023-02-14T12:24:52.169Z,8.68
2023-02-14T12:28:03.563Z,9.03
2023-02-14T12:30:50.086Z,8.90
2023-02-14T12:33:38.697Z,9.80
2023-02-14T12:36:55.391Z,9.50
2023-02-14T12:40:07.137Z,9.57
2023-02-14T12:42:58.072Z,8.70
2023-02-14T12:46:03.842Z,7.95
2023-02-14T12:49:16.366Z,8.75
2023-02-14T12:52:22.300Z,9.82
2023-02-14T12:55:29.128Z,9.10
2023-02-14T12:58:26.920Z,8.43
2023-02-14T13:01:28.405Z,8.95
2023-02-14T13:04:41.131Z,7.55
2023-02-14T13:07:48.711Z,8.65
2023-02-14T13:10:45.967Z,9.48
2023-02-14T13:13:51.992Z,8.20
2023-02-14T13:16:51.102Z,8.00
2023-02-14T13:19:53.838Z,7.93
2023-02-14T13:22:48.884Z,6.75
2023-02-14T13:25:42.737Z,9.25
2023-02-14T13:28:30.817Z,7.47
2023-02-14T13:31:18.824Z,7.47
2023-02-14T13:34:16.617Z,6.85
2023-02-14T13:37:06.197Z,7.07
2023-02-14T13:39:53.981Z,7.80
2023-02-14T13:42:51.601Z,6.60
2023-02-14T13:45:40.215Z,6.35
2023-02-14T13:48:28.567Z,8.25
2023-02-14T13:51:14.166Z,7.05
2023-02-14T13:53:59.850Z,7.00
2023-02-14T13:56:45.058Z,6.63
2023-02-14T13:59:33.314Z,7.00
2023-02-14T14:02:30.079Z,6.10
2023-02-14T14:05:35.481Z,6.97
2023-02-14T14:08:23.764Z,6.97
2023-02-14T14:11:33.146Z,6.80
2023-02-14T14:14:18.844Z,7.75
2023-02-14T14:17:19.713Z,7.07
2023-02-14T14:20:20.782Z,6.55
2023-02-14T14:23:28.976Z,6.88
2023-02-14T14:27:02.176Z,7.00
2023-02-14T14:30:06.514Z,6.82
2023-02-14T14:32:52.793Z,7.97
2023-02-14T14:35:39.869Z,7.50
2023-02-14T14:38:26.994Z,7.15
2023-02-14T14:41:12.302Z,13.83
2023-02-14T14:44:00.516Z,6.75
2023-02-14T14:46:49.112Z,7.82
2023-02-14T14:49:37.918Z,6.72
2023-02-14T14:52:47.386Z,6.50
2023-02-14T14:55:37.839Z,7.07
2023-02-14T14:58:41.988Z,6.43
2023-02-14T15:01:39.985Z,6.18
2023-02-14T15:04:28.277Z,6.90
2023-02-14T15:07:39.610Z,8.25
2023-02-14T15:10:31.289Z,5.90
2023-02-14T15:13:35.340Z,6.95
2023-02-14T15:16:41.967Z,9.45
2023-02-14T15:19:38.911Z,7.75
2023-02-14T15:22:26.669Z,5.38
2023-02-14T15:25:22.614Z,7.67
2023-02-14T15:28:17.604Z,7.63
2023-02-14T15:31:06.924Z,6.78
2023-02-14T15:33:52.461Z,8.02
2023-02-14T15:36:49.357Z,7.70
2023-02-14T15:40:09.391Z,9.40
2023-02-14T15:43:32.335Z,7.95
2023-02-14T15:46:28.633Z,7.30
2023-02-14T15:49:22.013Z,11.00
2023-02-14T15:52:07.928Z,11.15
2023-02-14T15:54:53.789Z,10.60
2023-02-14T15:57:40.466Z,11.73
2023-02-14T16:00:34.306Z,8.35
2023-02-14T16:03:22.652Z,8.20
2023-02-14T16:06:29.425Z,7.97
2023-02-14T16:09:32.539Z,9.47
2023-02-14T16:12:38.382Z,7.85
2023-02-14T16:15:40.331Z,7.13
2023-02-14T16:18:37.774Z,8.02
2023-02-14T16:21:24.679Z,8.95
2023-02-14T16:24:12.601Z,9.27
2023-02-14T16:26:58.214Z,9.27
2023-02-14T16:29:43.877Z,9.95
2023-02-14T16:32:30.643Z,11.00
2023-02-14T16:35:19.628Z,8.85
2023-02-14T16:38:04.695Z,9.27
2023-02-14T16:40:53.225Z,9.38
2023-02-14T16:43:38.864Z,9.05
2023-02-14T16:46:29.675Z,9.80
2023-02-14T16:49:15.824Z,8.40
2023-02-14T16:52:04.736Z,9.00
2023-02-14T16:54:52.782Z,9.10
2023-02-14T16:57:44.208Z,9.70
2023-02-14T17:00:31.149Z,7.97
2023-02-14T17:03:20.660Z,9.10
2023-02-14T17:06:08.367Z,10.33
2023-02-14T17:08:55.610Z,8.75
2023-02-14T17:11:48.430Z,7.75
2023-02-14T17:14:39.135Z,8.40
2023-02-14T17:17:26.210Z,9.88
2023-02-14T17:20:16.025Z,7.70
2023-02-14T17:23:01.518Z,10.73
2023-02-14T17:25:47.632Z,8.77
2023-02-14T17:28:33.095Z,11.50
2023-02-14T17:31:20.820Z,10.07
2023-02-14T17:34:06.884Z,10.73
2023-02-14T17:36:52.111Z,8.73
2023-02-14T17:39:37.456Z,8.70
2023-02-14T17:42:22.869Z,7.60
2023-02-14T17:45:11.987Z,9.40
2023-02-14T17:47:57.371Z,10.07
2023-02-14T17:50:43.388Z,7.78
2023-02-14T17:53:28.608Z,9.05
2023-02-14T17:56:20.104Z,9.45
2023-02-14T17:59:05.673Z,8.88
2023-02-14T18:01:51.123Z,10.90
2023-02-14T18:04:37.285Z,8.75
2023-02-14T18:07:23.853Z,10.77
2023-02-14T18:10:10.182Z,7.70
2023-02-14T18:12:55.455Z,9.02
2023-02-14T18:15:41.235Z,19.93
2023-02-14T18:18:26.473Z,66.18
2023-02-14T18:21:14.175Z,162.48
2023-02-14T18:24:00.214Z,183.23
2023-02-14T18:26:45.994Z,177.00
2023-02-14T18:29:32.346Z,165.93
2023-02-14T18:32:17.428Z,155.20
2023-02-14T18:35:02.717Z,156.63
2023-02-14T18:37:47.878Z,142.77
2023-02-14T18:40:33.556Z,145.10
2023-02-14T18:43:18.505Z,149.20
2023-02-14T18:46:04.439Z,145.82
2023-02-14T18:48:50.162Z,139.57
2023-02-14T18:51:39.163Z,141.43
2023-02-14T18:54:24.877Z,140.40
2023-02-14T18:57:10.429Z,131.93
2023-02-14T18:59:55.986Z,116.85
2023-02-14T19:02:41.812Z,124.47
2023-02-14T19:05:27.299Z,110.82
2023-02-14T19:08:13.001Z,111.90
2023-02-14T19:10:59.710Z,118.50
2023-02-14T19:13:49.997Z,115.82
2023-02-14T19:16:38.307Z,105.40
2023-02-14T19:19:24.069Z,110.75
2023-02-14T19:22:09.488Z,105.28
2023-02-14T19:24:54.885Z,95.03
2023-02-14T19:27:40.359Z,103.07
2023-02-14T19:30:25.683Z,95.15
2023-02-14T19:33:10.956Z,89.22
2023-02-14T19:36:01.426Z,91.07
2023-02-14T19:38:50.234Z,89.67
2023-02-14T19:41:35.861Z,83.45
2023-02-14T19:44:25.141Z,86.28
2023-02-14T19:47:26.905Z,73.10
2023-02-14T19:50:17.769Z,79.43
2023-02-14T19:53:03.266Z,76.40
2023-02-14T19:55:48.958Z,78.47
2023-02-14T19:58:34.006Z,73.70
2023-02-14T20:01:22.201Z,76.57
2023-02-14T20:04:10.852Z,74.03
2023-02-14T20:06:57.481Z,65.93
2023-02-14T20:09:43.713Z,59.47
2023-02-14T20:12:29.325Z,65.15
2023-02-14T20:15:14.932Z,64.90
2023-02-14T20:18:01.563Z,62.13
2023-02-14T20:21:03.101Z,58.83
2023-02-14T20:23:48.557Z,58.22
2023-02-14T20:26:35.542Z,60.70
2023-02-14T20:29:23.150Z,63.08
2023-02-14T20:32:09.539Z,61.30
2023-02-14T20:34:55.954Z,60.93
2023-02-14T20:37:43.095Z,64.00
2023-02-14T20:40:28.270Z,65.13
2023-02-14T20:43:13.985Z,67.85
2023-02-14T20:46:00.734Z,65.80
2023-02-14T20:48:46.128Z,66.00
2023-02-14T20:51:31.635Z,65.22
2023-02-14T20:54:22.293Z,61.70
2023-02-14T20:57:07.829Z,66.45
2023-02-14T20:59:52.772Z,63.90
2023-02-14T21:02:38.165Z,60.33
2023-02-14T21:05:23.800Z,62.65
2023-02-14T21:08:09.132Z,64.18
2023-02-14T21:10:54.421Z,64.35
2023-02-14T21:13:40.308Z,66.68
2023-02-14T21:16:25.349Z,60.90
2023-02-14T21:19:10.909Z,60.25
2023-02-14T21:21:56.184Z,59.50
2023-02-14T21:24:41.636Z,58.15
2023-02-14T21:27:27.522Z,57.53
2023-02-14T21:30:13.481Z,55.30
2023-02-14T21:33:00.149Z,58.60
2023-02-14T21:35:45.760Z,55.78
2023-02-14T21:38:31.164Z,60.03
2023-02-14T21:41:20.061Z,54.58
2023-02-14T21:44:06.026Z,57.10
2023-02-14T21:46:51.451Z,51.85
2023-02-14T21:49:55.318Z,55.83
2023-02-14T21:52:40.632Z,52.30
2023-02-14T21:55:25.849Z,53.00
2023-02-14T21:58:10.860Z,54.70
2023-02-14T22:00:55.960Z,51.90
2023-02-14T22:03:41.436Z,54.10
2023-02-14T22:06:27.584Z,47.47
2023-02-14T22:09:14.865Z,51.20
2023-02-14T22:12:00.328Z,46.30
2023-02-14T22:14:45.510Z,47.05
2023-02-14T22:17:32.646Z,45.80
2023-02-14T22:20:18.366Z,43.45
2023-02-14T22:23:03.592Z,47.85
2023-02-14T22:25:48.819Z,47.00
2023-02-14T22:28:33.673Z,45.35
2023-02-14T22:31:19.289Z,47.13
2023-02-14T22:34:06.014Z,39.63
2023-02-14T22:36:51.213Z,41.85
2023-02-14T22:39:36.930Z,41.77
2023-02-14T22:42:22.078Z,43.67
2023-02-14T22:45:08.609Z,41.88
2023-02-14T22:47:54.179Z,37.30
2023-02-14T22:50:39.533Z,38.60
2023-02-14T22:53:24.826Z,39.20
2023-02-14T22:56:34.788Z,38.50
2023-02-14T22:59:27.394Z,39.65
2023-02-14T23:02:14.621Z,39.30
2023-02-14T23:05:00.530Z,39.55
2023-02-14T23:07:46.122Z,35.03
2023-02-14T23:10:31.646Z,37.10
2023-02-14T23:13:36.523Z,37.35
2023-02-14T23:16:41.294Z,35.40
2023-02-14T23:19:47.743Z,31.77
2023-02-14T23:22:36.021Z,35.67
2023-02-14T23:25:21.764Z,34.38
2023-02-14T23:28:07.287Z,32.15
2023-02-14T23:30:52.767Z,34.95
2023-02-14T23:33:37.694Z,33.70
2023-02-14T23:36:23.164Z,30.23
2023-02-14T23:39:08.474Z,34.22
2023-02-14T23:41:54.271Z,31.27
2023-02-14T23:44:40.335Z,32.72
2023-02-14T23:47:25.549Z,31.48
2023-02-14T23:50:11.270Z,32.13
2023-02-14T23:52:56.575Z,29.83
2023-02-14T23:55:41.822Z,31.48
2023-02-14T23:58:27.135Z,31.55
